Time;durP1;ratioP1;P1;durP2;ratioP2;P2;SDS_P1;SDS_P2;PMS_P1;PMS_P2;Temp;Humidity;BMP_temperature;BMP_pressure;BME280_temperature;BME280_humidity;BME280_pressure;Samples;Min_cycle;Max_cycle;Signal;HPM_P1;HPM_P2
2023/04/05 00:00:58;;;;;;;;;;;;;;;3.41;100.00;96524.09;5087719;28;19920;-83
2023/04/05 00:03:27;;;;;;;;;;;;;;;3.47;100.00;96524.38;5080658;28;19950;-83
2023/04/05 00:05:54;;;;;;;;;;;;;;;3.51;100.00;96525.66;5080487;28;19924;-83
2023/04/05 00:08:25;;;;;;;;;;;;;;;3.55;100.00;96524.31;5086393;28;19921;-83
2023/04/05 00:10:52;;;;;;;;;;;;;;;3.50;100.00;96524.84;5086134;28;19942;-84
2023/04/05 00:13:19;;;;;;;;;;;;;;;3.51;100.00;96529.16;5079645;28;19924;-83
2023/04/05 00:15:47;;;;;;;;;;;;;;;3.46;100.00;96528.91;5086818;28;19926;-83
2023/04/05 00:18:20;;;;;;;;;;;;;;;3.37;100.00;96528.13;5084723;28;19920;-84
2023/04/05 00:20:48;;;;;;;;;;;;;;;3.32;100.00;96524.34;5086623;28;19924;-84
2023/04/05 00:23:16;;;;;;;;;;;;;;;3.25;100.00;96515.41;5085232;28;19920;-83
2023/04/05 00:25:43;;;;;;;;;;;;;;;3.11;100.00;96524.19;5071160;28;19920;-83
2023/04/05 00:28:10;;;;;;;;;;;;;;;3.02;100.00;96518.94;5086736;28;19968;-83
2023/04/05 00:30:37;;;;;;;;;;;;;;;3.02;100.00;96518.94;5083637;28;19970;-83
2023/04/05 00:33:04;;;;;;;;;;;;;;;3.00;100.00;96517.44;5085744;28;19927;-83
2023/04/05 00:35:30;;;;;;;;;;;;;;;3.07;100.00;96512.22;5086804;28;19924;-84
2023/04/05 00:37:59;;;;;;;;;;;;;;;3.08;100.00;96517.38;5083257;28;19920;-82
2023/04/05 00:40:26;;;;;;;;;;;;;;;3.08;100.00;96517.38;5085115;28;19968;-84
2023/04/05 00:42:53;;;;;;;;;;;;;;;3.09;100.00;96512.88;5089234;28;19924;-83
2023/04/05 00:45:20;;;;;;;;;;;;;;;-141.59;100.00;61776.25;5087966;28;19927;-83
2023/04/05 00:47:46;;;;;;;;;;;;;;;-141.59;100.00;61776.25;5081774;28;19930;-84
2023/04/05 00:50:14;;;;;;;;;;;;;;;-141.59;100.00;61776.25;5085206;28;19920;-84
2023/04/05 00:52:41;;;;;;;;;;;;;;;-141.59;100.00;61776.25;5076501;28;19920;-84
2023/04/05 00:55:11;;;;;;;;;;;;;;;-141.59;100.00;61776.25;5089002;28;20033;-83
2023/04/05 00:57:38;;;;;;;;;;;;;;;-141.59;100.00;61776.25;5085055;28;19959;-83
2023/04/05 01:00:08;;;;;;;;;;;;;;;-141.59;100.00;61776.25;5081557;28;19920;-83
2023/04/05 01:02:38;;;;;;;;;;;;;;;-141.59;100.00;61776.25;5081127;28;19943;-84
2023/04/05 01:05:08;;;;;;;;;;;;;;;-141.59;100.00;61776.25;5087901;28;19930;-84
2023/04/05 01:07:38;;;;;;;;;;;;;;;-141.59;100.00;61776.25;5073949;28;19927;-84
2023/04/05 01:10:06;;;;;;;;;;;;;;;-141.59;100.00;61776.25;5086950;28;19928;-83
2023/04/05 01:12:35;;;;;;;;;;;;;;;-141.59;100.00;61776.25;5086454;28;19920;-84
2023/04/05 01:15:04;;;;;;;;;;;;;;;-141.59;100.00;61776.25;5081470;28;19968;-84
2023/04/05 01:17:35;;;;;;;;;;;;;;;-141.59;100.00;61776.25;5088324;28;19966;-84
2023/04/05 01:20:09;;;;;;;;;;;;;;;-141.59;100.00;61776.25;5084885;28;19921;-83
2023/04/05 01:22:57;;;;;;;;;;;;;;;-141.59;100.00;61776.25;5101171;28;19995;-84
2023/04/05 01:25:43;;;;;;;;;;;;;;;-141.59;100.00;61776.25;5079607;28;20023;-84
2023/04/05 01:28:35;;;;;;;;;;;;;;;-141.59;100.00;61776.25;5099806;28;19946;-84
2023/04/05 01:31:07;;;;;;;;;;;;;;;-141.59;100.00;61776.25;5078351;28;20007;-84
2023/04/05 01:33:35;;;;;;;;;;;;;;;-141.59;100.00;61776.25;5086302;28;19951;-83
2023/04/05 01:36:04;;;;;;;;;;;;;;;-141.59;100.00;61776.25;5082733;28;19920;-84
2023/04/05 01:38:37;;;;;;;;;;;;;;;-141.59;100.00;61776.25;5080121;28;19919;-84
2023/04/05 01:41:04;;;;;;;;;;;;;;;-141.59;100.00;61776.25;5073884;28;19924;-84
2023/04/05 01:43:31;;;;;;;;;;;;;;;-141.59;100.00;61776.25;5084438;28;19934;-84
2023/04/05 01:45:58;;;;;;;;;;;;;;;-141.59;100.00;61776.25;5078156;28;19959;-83
2023/04/05 01:48:27;;;;;;;;;;;;;;;-141.59;100.00;61776.25;5080880;28;19949;-83
2023/04/05 01:50:53;;;;;;;;;;;;;;;-141.59;100.00;61776.25;5083150;28;19923;-84
2023/04/05 01:53:20;;;;;;;;;;;;;;;-141.59;100.00;61776.25;5087684;28;19923;-84
2023/04/05 01:55:47;;;;;;;;;;;;;;;-141.59;100.00;61776.25;5084922;28;19931;-83
2023/04/05 01:58:14;;;;;;;;;;;;;;;-141.59;100.00;61776.25;5082487;28;19920;-83
2023/04/05 02:00:41;;;;;;;;;;;;;;;-141.59;100.00;61776.25;5084228;28;20534;-84
2023/04/05 02:03:07;;;;;;;;;;;;;;;-141.59;100.00;61776.25;5082928;28;19920;-84
2023/04/05 02:05:36;;;;;;;;;;;;;;;-141.59;100.00;61776.25;5092814;28;19927;-84
2023/04/05 02:08:02;;;;;;;;;;;;;;;-141.59;100.00;61776.25;5075435;28;19927;-84
2023/04/05 02:10:29;;;;;;;;;;;;;;;-141.59;100.00;61776.25;5084170;28;19920;-84
2023/04/05 02:12:56;;;;;;;;;;;;;;;-141.59;100.00;61776.25;5082888;28;19927;-84
2023/04/05 02:15:23;;;;;;;;;;;;;;;-141.59;100.00;61776.25;5080439;28;19931;-84
2023/04/05 02:17:52;;;;;;;;;;;;;;;-141.59;100.00;61776.25;5087649;28;19930;-84
2023/04/05 02:20:19;;;;;;;;;;;;;;;-141.59;100.00;61776.25;5087512;28;19994;-84
2023/04/05 02:22:47;;;;;;;;;;;;;;;-141.59;100.00;61776.25;5076622;28;19924;-84
2023/04/05 02:25:14;;;;;;;;;;;;;;;-141.59;100.00;61776.25;5078246;28;19960;-84
2023/04/05 02:27:41;;;;;;;;;;;;;;;-141.59;100.00;61776.25;5085470;28;19920;-83
2023/04/05 02:30:09;;;;;;;;;;;;;;;-141.59;100.00;61776.25;5085416;28;19924;-84
2023/04/05 02:32:36;;;;;;;;;;;;;;;-141.59;100.00;61776.25;5085149;28;19926;-84
2023/04/05 02:35:02;;;;;;;;;;;;;;;-141.59;100.00;61776.25;5082133;28;19920;-83
2023/04/05 02:37:29;;;;;;;;;;;;;;;-141.59;100.00;61776.25;5082699;28;19927;-84
2023/04/05 02:39:58;;;;;;;;;;;;;;;-141.59;100.00;61776.25;5081754;28;19920;-83
2023/04/05 02:42:25;;;;;;;;;;;;;;;-141.59;100.00;61776.25;5078035;28;19970;-84
2023/04/05 02:44:52;;;;;;;;;;;;;;;-141.59;100.00;61776.25;5080039;28;19928;-84
2023/04/05 02:47:21;;;;;;;;;;;;;;;-141.59;100.00;61776.25;5072525;28;19920;-84
2023/04/05 02:49:52;;;;;;;;;;;;;;;-141.59;100.00;61776.25;5090560;28;19928;-84
2023/04/05 02:52:20;;;;;;;;;;;;;;;-141.59;100.00;61776.25;5087983;28;19920;-83
2023/04/05 02:54:49;;;;;;;;;;;;;;;-141.59;100.00;61776.25;5090035;28;19928;-84
2023/04/05 02:57:22;;;;;;;;;;;;;;;-141.59;100.00;61776.25;5087350;28;19920;-84
2023/04/05 02:59:55;;;;;;;;;;;;;;;-141.59;100.00;61776.25;5087516;28;19936;-84
2023/04/05 03:02:22;;;;;;;;;;;;;;;-141.59;100.00;61776.25;5090733;28;19946;-84
2023/04/05 03:04:52;;;;;;;;;;;;;;;-141.59;100.00;61776.25;5090004;28;19920;-85
2023/04/05 03:07:20;;;;;;;;;;;;;;;-141.59;100.00;61776.25;5089675;28;19965;-84
2023/04/05 03:09:50;;;;;;;;;;;;;;;-141.59;100.00;61776.25;5089427;28;19967;-84
2023/04/05 03:12:17;;;;;;;;;;;;;;;-141.59;100.00;61776.25;5087074;28;20029;-84
2023/04/05 03:14:46;;;;;;;;;;;;;;;-141.59;100.00;61776.25;5097684;28;19963;-84
2023/04/05 03:17:16;;;;;;;;;;;;;;;-141.59;100.00;61776.25;5089784;28;19927;-84
2023/04/05 03:19:48;;;;;;;;;;;;;;;-141.59;100.00;61776.25;5084725;28;19921;-84
2023/04/05 03:22:20;;;;;;;;;;;;;;;-141.59;100.00;61776.25;5085584;28;19927;-84
2023/04/05 03:24:47;;;;;;;;;;;;;;;-141.59;100.00;61776.25;5083088;28;20022;-84
2023/04/05 03:27:17;;;;;;;;;;;;;;;-141.59;100.00;61776.25;5086353;28;19920;-83
2023/04/05 03:30:10;;;;;;;;;;;;;;;-141.59;100.00;61776.25;5085141;28;19926;-84
2023/04/05 03:32:41;;;;;;;;;;;;;;;-141.59;100.00;61776.25;5090171;28;19920;-84
2023/04/05 03:35:18;;;;;;;;;;;;;;;-141.59;100.00;61776.25;5082518;28;19928;-84
2023/04/05 03:37:46;;;;;;;;;;;;;;;-141.59;100.00;61776.25;5083490;28;20084;-83
2023/04/05 03:40:14;;;;;;;;;;;;;;;-141.59;100.00;61776.25;5092929;28;19920;-84
2023/04/05 03:42:40;;;;;;;;;;;;;;;-141.59;100.00;61776.25;5082456;28;19923;-84
2023/04/05 03:45:09;;;;;;;;;;;;;;;-141.59;100.00;61776.25;5087347;28;19920;-83
2023/04/05 03:47:36;;;;;;;;;;;;;;;-141.59;100.00;61776.25;5080065;28;19923;-83
2023/04/05 03:50:07;;;;;;;;;;;;;;;-141.59;100.00;61776.25;5085901;28;19920;-84
2023/04/05 03:52:34;;;;;;;;;;;;;;;-141.59;100.00;61776.25;5082552;28;19992;-86
2023/04/05 03:55:01;;;;;;;;;;;;;;;-141.59;100.00;61776.25;5108434;28;20018;-86
2023/04/05 03:57:31;;;;;;;;;;;;;;;-141.59;100.00;61776.25;5085271;28;19945;-86
2023/04/05 04:00:12;;;;;;;;;;;;;;;-141.59;100.00;61776.25;5090013;28;19979;-83
2023/04/05 04:02:44;;;;;;;;;;;;;;;-141.59;100.00;61776.25;5089120;28;19985;-83
2023/04/05 04:05:12;;;;;;;;;;;;;;;-141.59;100.00;61776.25;5087062;28;19921;-83
2023/04/05 04:07:40;;;;;;;;;;;;;;;-141.59;100.00;61776.25;5084680;28;19959;-83
2023/04/05 04:10:08;;;;;;;;;;;;;;;-141.59;100.00;61776.25;5089339;28;19984;-83
2023/04/05 04:12:35;;;;;;;;;;;;;;;-141.59;100.00;61776.25;5089375;28;19920;-84
2023/04/05 04:15:02;;;;;;;;;;;;;;;-141.59;100.00;61776.25;5088315;28;19920;-83
2023/04/05 04:17:45;;;;;;;;;;;;;;;-141.59;100.00;61776.25;5092526;28;19946;-83
2023/04/05 04:20:30;;;;;;;;;;;;;;;-141.59;100.00;61776.25;5089974;28;20024;-83
2023/04/05 04:23:18;;;;;;;;;;;;;;;-141.59;100.00;61776.25;5074609;28;19928;-83
2023/04/05 04:26:12;;;;;;;;;;;;;;;-141.59;100.00;61776.25;5075742;28;19920;-84
2023/04/05 04:29:00;;;;;;;;;;;;;;;-141.59;100.00;61776.25;5085310;28;20018;-83
2023/04/05 04:31:47;;;;;;;;;;;;;;;-141.59;100.00;61776.25;5086869;28;19920;-82
2023/04/05 04:34:36;;;;;;;;;;;;;;;-141.59;100.00;61776.25;5087409;28;20015;-82
2023/04/05 04:37:29;;;;;;;;;;;;;;;-141.59;100.00;61776.25;5070894;28;19921;-82
2023/04/05 04:40:16;;;;;;;;;;;;;;;-141.59;100.00;61776.25;5088434;28;19973;-83
2023/04/05 04:42:58;;;;;;;;;;;;;;;-141.59;100.00;61776.25;5086484;28;19930;-82
2023/04/05 04:45:38;;;;;;;;;;;;;;;-141.59;100.00;61776.25;5084372;28;19928;-83
2023/04/05 04:48:25;;;;;;;;;;;;;;;-141.59;100.00;61776.25;5079227;28;19927;-83
2023/04/05 04:51:12;;;;;;;;;;;;;;;-141.59;100.00;61776.25;5082412;28;19919;-83
2023/04/05 04:53:39;;;;;;;;;;;;;;;-141.59;100.00;61776.25;5089911;28;19928;-83
2023/04/05 04:56:09;;;;;;;;;;;;;;;-141.59;100.00;61776.25;5086896;28;19928;-83
2023/04/05 04:58:36;;;;;;;;;;;;;;;-141.59;100.00;61776.25;5083979;28;19938;-82
2023/04/05 05:01:09;;;;;;;;;;;;;;;-141.59;100.00;61776.25;5089131;28;20023;-83
2023/04/05 05:03:37;;;;;;;;;;;;;;;-141.59;100.00;61776.25;5083560;28;19920;-82
2023/04/05 05:06:04;;;;;;;;;;;;;;;-141.59;100.00;61776.25;5099423;28;19928;-83
2023/04/05 05:08:36;;;;;;;;;;;;;;;-141.59;100.00;61776.25;5093705;28;19924;-83
2023/04/05 05:11:07;;;;;;;;;;;;;;;-141.59;100.00;61776.25;5086961;28;19952;-84
2023/04/05 05:13:33;;;;;;;;;;;;;;;-141.59;100.00;61776.25;5079338;28;19920;-84
2023/04/05 05:16:01;;;;;;;;;;;;;;;-141.59;100.00;61776.25;5078803;28;19924;-83
2023/04/05 05:18:27;;;;;;;;;;;;;;;-141.59;100.00;61776.25;5085867;28;19920;-83
2023/04/05 05:20:54;;;;;;;;;;;;;;;-141.59;100.00;61776.25;5086958;28;19934;-83
2023/04/05 05:23:21;;;;;;;;;;;;;;;-141.59;100.00;61776.25;5087235;28;20011;-83
2023/04/05 05:25:49;;;;;;;;;;;;;;;-141.59;100.00;61776.25;5080400;28;19920;-84
2023/04/05 05:28:16;;;;;;;;;;;;;;;-141.59;100.00;61776.25;5095953;28;19938;-83
2023/04/05 05:30:43;;;;;;;;;;;;;;;-141.59;100.00;61776.25;5080217;28;19959;-83
2023/04/05 05:33:10;;;;;;;;;;;;;;;-141.59;100.00;61776.25;5082544;28;20022;-83
2023/04/05 05:35:38;;;;;;;;;;;;;;;-141.59;100.00;61776.25;5082932;28;19927;-83
2023/04/05 05:38:05;;;;;;;;;;;;;;;-141.59;100.00;61776.25;5078439;28;20917;-83
2023/04/05 05:40:32;;;;;;;;;;;;;;;-141.59;100.00;61776.25;5085392;28;20007;-83
2023/04/05 05:43:00;;;;;;;;;;;;;;;-141.59;100.00;61776.25;5095386;28;19957;-82
2023/04/05 05:45:27;;;;;;;;;;;;;;;-141.59;100.00;61776.25;5082809;28;19995;-83
2023/04/05 05:47:54;;;;;;;;;;;;;;;-141.59;100.00;61776.25;5076779;28;19920;-83
2023/04/05 05:50:21;;;;;;;;;;;;;;;-141.59;100.00;61776.25;5082725;28;19920;-83
2023/04/05 05:52:49;;;;;;;;;;;;;;;-141.59;100.00;61776.25;5090438;28;20002;-82
2023/04/05 05:55:16;;;;;;;;;;;;;;;-141.59;100.00;61776.25;5085418;28;19924;-84
2023/04/05 05:57:43;;;;;;;;;;;;;;;-141.59;100.00;61776.25;5081464;28;19946;-83
2023/04/05 06:00:12;;;;;;;;;;;;;;;-141.59;100.00;61776.25;5085119;28;19991;-82
2023/04/05 06:02:39;;;;;;;;;;;;;;;-141.59;100.00;61776.25;5077392;28;19931;-82
2023/04/05 06:05:07;;;;;;;;;;;;;;;-141.59;100.00;61776.25;5084977;28;20045;-83
2023/04/05 06:07:35;;;;;;;;;;;;;;;-141.59;100.00;61776.25;5088139;28;19920;-82
2023/04/05 06:10:02;;;;;;;;;;;;;;;-141.59;100.00;61776.25;5086390;28;19927;-83
2023/04/05 06:12:29;;;;;;;;;;;;;;;-141.59;100.00;61776.25;5080595;28;19919;-82
2023/04/05 06:14:56;;;;;;;;;;;;;;;-141.59;100.00;61776.25;5087432;28;20039;-83
2023/04/05 06:17:25;;;;;;;;;;;;;;;-141.59;100.00;61776.25;5077713;28;19924;-83
2023/04/05 06:19:51;;;;;;;;;;;;;;;-141.59;100.00;61776.25;5082999;28;19920;-83
2023/04/05 06:22:18;;;;;;;;;;;;;;;-141.59;100.00;61776.25;5083510;28;19923;-82
2023/04/05 06:24:45;;;;;;;;;;;;;;;-141.59;100.00;61776.25;5085439;28;19920;-83
2023/04/05 06:27:13;;;;;;;;;;;;;;;-141.59;100.00;61776.25;5079870;28;19932;-83
2023/04/05 06:29:40;;;;;;;;;;;;;;;-141.59;100.00;61776.25;5084611;28;20010;-84
2023/04/05 06:32:07;;;;;;;;;;;;;;;-141.59;100.00;61776.25;5084123;28;19921;-82
2023/04/05 06:34:35;;;;;;;;;;;;;;;-141.59;100.00;61776.25;5078565;28;19928;-85
2023/04/05 06:37:02;;;;;;;;;;;;;;;-141.59;100.00;61776.25;5082936;28;19947;-84
2023/04/05 06:39:29;;;;;;;;;;;;;;;-141.59;100.00;61776.25;5077332;28;19927;-86
2023/04/05 06:41:57;;;;;;;;;;;;;;;-141.59;100.00;61776.25;5081519;28;19920;-86
2023/04/05 06:44:28;;;;;;;;;;;;;;;-141.59;100.00;61776.25;5077167;28;19981;-87
2023/04/05 06:46:55;;;;;;;;;;;;;;;-141.59;100.00;61776.25;5091484;28;19920;-87
2023/04/05 06:49:22;;;;;;;;;;;;;;;-141.59;100.00;61776.25;5076727;28;19920;-88
2023/04/05 06:51:51;;;;;;;;;;;;;;;-141.59;100.00;61776.25;5079629;28;19920;-87
2023/04/05 06:54:20;;;;;;;;;;;;;;;-141.59;100.00;61776.25;5074673;28;19927;-86
2023/04/05 06:56:46;;;;;;;;;;;;;;;-141.59;100.00;61776.25;5084518;28;19955;-85
2023/04/05 06:59:13;;;;;;;;;;;;;;;-141.59;100.00;61776.25;5082275;28;19927;-85
2023/04/05 07:01:41;;;;;;;;;;;;;;;-141.59;100.00;61776.25;5075951;28;19924;-88
2023/04/05 07:04:07;;;;;;;;;;;;;;;-141.59;100.00;61776.25;5083991;28;19972;-87
2023/04/05 07:06:37;;;;;;;;;;;;;;;-141.59;100.00;61776.25;5070838;28;19920;-86
2023/04/05 07:09:06;;;;;;;;;;;;;;;-141.59;100.00;61776.25;5075264;28;19927;-86
2023/04/05 07:11:33;;;;;;;;;;;;;;;-141.59;100.00;61776.25;5077391;28;20011;-86
2023/04/05 07:14:00;;;;;;;;;;;;;;;-141.59;100.00;61776.25;5079616;28;19929;-86
2023/04/05 07:16:27;;;;;;;;;;;;;;;-141.59;100.00;61776.25;5096175;28;19985;-86
2023/04/05 07:18:55;;;;;;;;;;;;;;;-141.59;100.00;61776.25;5083978;28;19920;-86
2023/04/05 07:21:22;;;;;;;;;;;;;;;-141.59;100.00;61776.25;5076984;28;19970;-85
2023/04/05 07:23:52;;;;;;;;;;;;;;;-141.59;100.00;61776.25;5081755;28;20015;-86
2023/04/05 07:26:21;;;;;;;;;;;;;;;-141.59;100.00;61776.25;5076705;28;19920;-86
2023/04/05 07:28:48;;;;;;;;;;;;;;;-141.59;100.00;61776.25;5080391;28;19920;-85
2023/04/05 07:31:15;;;;;;;;;;;;;;;-141.59;100.00;61776.25;5078531;28;19920;-88
2023/04/05 07:33:42;;;;;;;;;;;;;;;-141.59;100.00;61776.25;5087818;28;19930;-87
2023/04/05 07:36:09;;;;;;;;;;;;;;;-141.59;100.00;61776.25;5089513;28;19962;-86
2023/04/05 07:38:35;;;;;;;;;;;;;;;-141.59;100.00;61776.25;5086206;28;19921;-86
2023/04/05 07:41:02;;;;;;;;;;;;;;;-141.59;100.00;61776.25;5086660;28;19920;-87
2023/04/05 07:43:30;;;;;;;;;;;;;;;-141.59;100.00;61776.25;5089836;28;19920;-87
2023/04/05 07:46:02;;;;;;;;;;;;;;;-141.59;100.00;61776.25;5081217;28;19920;-85
2023/04/05 07:48:29;;;;;;;;;;;;;;;-141.59;100.00;61776.25;5087870;28;19920;-87
2023/04/05 07:50:56;;;;;;;;;;;;;;;-141.59;100.00;61776.25;5085532;28;19920;-86
2023/04/05 07:53:23;;;;;;;;;;;;;;;-141.59;100.00;61776.25;5087086;28;19932;-86
2023/04/05 07:55:50;;;;;;;;;;;;;;;-141.59;100.00;61776.25;5086286;28;19920;-87
2023/04/05 07:58:17;;;;;;;;;;;;;;;-141.59;100.00;61776.25;5086243;28;19920;-85
2023/04/05 08:00:46;;;;;;;;;;;;;;;-141.59;100.00;61776.25;5085567;28;19920;-86
2023/04/05 08:03:13;;;;;;;;;;;;;;;-141.59;100.00;61776.25;5088327;28;19931;-85
2023/04/05 08:05:39;;;;;;;;;;;;;;;-141.59;100.00;61776.25;5076452;28;19927;-85
2023/04/05 08:08:07;;;;;;;;;;;;;;;-141.59;100.00;61776.25;5082720;28;19921;-85
2023/04/05 08:10:39;;;;;;;;;;;;;;;-141.59;100.00;61776.25;5085823;28;20025;-86
2023/04/05 08:13:07;;;;;;;;;;;;;;;-141.59;100.00;61776.25;5091017;28;19934;-86
2023/04/05 08:15:34;;;;;;;;;;;;;;;-141.59;100.00;61776.25;5083715;28;19920;-85
2023/04/05 08:18:02;;;;;;;;;;;;;;;-141.59;100.00;61776.25;5105012;28;19920;-86
2023/04/05 08:20:29;;;;;;;;;;;;;;;-141.59;100.00;61776.25;5090382;28;19920;-86
2023/04/05 08:22:56;;;;;;;;;;;;;;;-141.59;100.00;61776.25;5084624;28;19924;-85
2023/04/05 08:25:23;;;;;;;;;;;;;;;-141.59;100.00;61776.25;5087762;28;19928;-84
2023/04/05 08:27:49;;;;;;;;;;;;;;;-141.59;100.00;61776.25;5089594;28;19921;-84
2023/04/05 08:30:18;;;;;;;;;;;;;;;-141.59;100.00;61776.25;5088675;28;19977;-84
2023/04/05 08:32:45;;;;;;;;;;;;;;;-141.59;100.00;61776.25;5105560;28;19942;-84
2023/04/05 08:35:13;;;;;;;;;;;;;;;-141.59;100.00;61776.25;5078312;28;19927;-85
2023/04/05 08:37:40;;;;;;;;;;;;;;;-141.59;100.00;61776.25;5084512;28;19954;-86
2023/04/05 08:40:08;;;;;;;;;;;;;;;-141.59;100.00;61776.25;5079285;28;19927;-85
2023/04/05 08:42:36;;;;;;;;;;;;;;;-141.59;100.00;61776.25;5092532;28;19926;-83
2023/04/05 08:45:04;;;;;;;;;;;;;;;-141.59;100.00;61776.25;5077889;28;19920;-84
2023/04/05 08:47:31;;;;;;;;;;;;;;;-141.59;100.00;61776.25;5085646;28;19920;-85
2023/04/05 08:49:59;;;;;;;;;;;;;;;-141.59;100.00;61776.25;5083230;28;19920;-84
2023/04/05 08:52:27;;;;;;;;;;;;;;;-141.59;100.00;61776.25;5085128;28;19924;-85
2023/04/05 08:54:54;;;;;;;;;;;;;;;-141.59;100.00;61776.25;5080124;28;19928;-85
2023/04/05 08:57:26;;;;;;;;;;;;;;;-141.59;100.00;61776.25;5088510;28;19966;-84
2023/04/05 08:59:53;;;;;;;;;;;;;;;-141.59;100.00;61776.25;5078806;28;19951;-85
2023/04/05 09:02:23;;;;;;;;;;;;;;;-141.59;100.00;61776.25;5076209;28;19924;-84
2023/04/05 09:04:50;;;;;;;;;;;;;;;-141.59;100.00;61776.25;5083929;28;19920;-85
2023/04/05 09:07:17;;;;;;;;;;;;;;;-141.59;100.00;61776.25;5079918;28;19920;-84
2023/04/05 09:09:49;;;;;;;;;;;;;;;-141.59;100.00;61776.25;5084113;28;20014;-84
2023/04/05 09:12:17;;;;;;;;;;;;;;;-141.59;100.00;61776.25;5096121;28;19960;-86
2023/04/05 09:14:45;;;;;;;;;;;;;;;-141.59;100.00;61776.25;5078903;28;19936;-88
2023/04/05 09:17:12;;;;;;;;;;;;;;;-141.59;100.00;61776.25;5081240;28;19920;-85
2023/04/05 09:19:38;;;;;;;;;;;;;;;-141.59;100.00;61776.25;5082759;28;19924;-86
2023/04/05 09:22:06;;;;;;;;;;;;;;;-141.59;100.00;61776.25;5097938;28;19946;-85
2023/04/05 09:24:40;;;;;;;;;;;;;;;-141.59;100.00;61776.25;5082003;28;19967;-86
2023/04/05 09:27:09;;;;;;;;;;;;;;;-141.59;100.00;61776.25;5093065;28;19926;-84
2023/04/05 09:29:36;;;;;;;;;;;;;;;-141.59;100.00;61776.25;5083269;28;20007;-85
2023/04/05 09:32:06;;;;;;;;;;;;;;;-141.59;100.00;61776.25;5089207;28;19920;-83
2023/04/05 09:34:35;;;;;;;;;;;;;;;-141.59;100.00;61776.25;5080783;28;19921;-84
2023/04/05 09:37:03;;;;;;;;;;;;;;;-141.59;100.00;61776.25;5090147;28;19920;-84
2023/04/05 09:39:30;;;;;;;;;;;;;;;-141.59;100.00;61776.25;5079617;28;19920;-84
2023/04/05 09:42:15;;;;;;;;;;;;;;;-141.59;100.00;61776.25;5079951;28;19920;-85
2023/04/05 09:44:56;;;;;;;;;;;;;;;-141.59;100.00;61776.25;5082648;28;19927;-85
2023/04/05 09:47:26;;;;;;;;;;;;;;;-141.59;100.00;61776.25;5088271;28;19920;-84
2023/04/05 09:49:56;;;;;;;;;;;;;;;-141.59;100.00;61776.25;5086775;28;19924;-84
2023/04/05 09:52:24;;;;;;;;;;;;;;;-141.59;100.00;61776.25;5078644;28;19947;-84
2023/04/05 09:54:52;;;;;;;;;;;;;;;-141.59;100.00;61776.25;5076336;28;20457;-87
2023/04/05 09:57:19;;;;;;;;;;;;;;;-141.59;100.00;61776.25;5081131;28;19928;-85
2023/04/05 09:59:46;;;;;;;;;;;;;;;-141.59;100.00;61776.25;5077787;28;19920;-85
2023/04/05 10:02:15;;;;;;;;;;;;;;;-141.59;100.00;61776.25;5081621;28;19927;-84
2023/04/05 10:04:42;;;;;;;;;;;;;;;-141.59;100.00;61776.25;5079241;28;19963;-84
2023/04/05 10:07:12;;;;;;;;;;;;;;;-141.59;100.00;61776.25;5082283;28;19946;-84
2023/04/05 10:09:39;;;;;;;;;;;;;;;-141.59;100.00;61776.25;5078092;28;20368;-84
2023/04/05 10:12:07;;;;;;;;;;;;;;;-141.59;100.00;61776.25;5081593;28;19927;-86
2023/04/05 10:14:34;;;;;;;;;;;;;;;-141.59;100.00;61776.25;5081776;28;19923;-86
2023/04/05 10:17:08;;;;;;;;;;;;;;;-141.59;100.00;61776.25;5096255;28;19927;-87
2023/04/05 10:19:43;;;;;;;;;;;;;;;-141.59;100.00;61776.25;5080820;28;19924;-85
2023/04/05 10:22:15;;;;;;;;;;;;;;;-141.59;100.00;61776.25;5081183;28;19959;-87
2023/04/05 10:24:46;;;;;;;;;;;;;;;-141.59;100.00;61776.25;5084411;28;19927;-86
2023/04/05 10:27:16;;;;;;;;;;;;;;;-141.59;100.00;61776.25;5082892;28;19939;-86
2023/04/05 10:29:44;;;;;;;;;;;;;;;-141.59;100.00;61776.25;5080568;28;20181;-86
2023/04/05 10:32:13;;;;;;;;;;;;;;;-141.59;100.00;61776.25;5080235;28;20076;-85
2023/04/05 10:34:46;;;;;;;;;;;;;;;-141.59;100.00;61776.25;5081761;28;19931;-86
2023/04/05 10:37:21;;;;;;;;;;;;;;;-141.59;100.00;61776.25;5075533;28;19927;-86
2023/04/05 10:39:48;;;;;;;;;;;;;;;-141.59;100.00;61776.25;5098657;28;19942;-86
2023/04/05 10:42:20;;;;;;;;;;;;;;;-141.59;100.00;61776.25;5070701;28;19926;-86
2023/04/05 10:44:49;;;;;;;;;;;;;;;-141.59;100.00;61776.25;5095444;28;19928;-85
2023/04/05 10:47:19;;;;;;;;;;;;;;;-141.59;100.00;61776.25;5081757;28;19946;-87
2023/04/05 10:49:49;;;;;;;;;;;;;;;-141.59;100.00;61776.25;5079745;28;19920;-86
2023/04/05 10:52:16;;;;;;;;;;;;;;;-141.59;100.00;61776.25;5099367;28;19923;-85
2023/04/05 10:54:44;;;;;;;;;;;;;;;-141.59;100.00;61776.25;5082107;28;19920;-87
2023/04/05 10:57:11;;;;;;;;;;;;;;;-141.59;100.00;61776.25;5078527;28;19920;-86
2023/04/05 10:59:41;;;;;;;;;;;;;;;-141.59;100.00;61776.25;5080743;28;19960;-87
2023/04/05 11:02:08;;;;;;;;;;;;;;;-141.59;100.00;61776.25;5086414;28;19954;-86
2023/04/05 11:04:35;;;;;;;;;;;;;;;-141.59;100.00;61776.25;5075923;28;19931;-84
2023/04/05 11:07:14;;;;;;;;;;;;;;;-141.59;100.00;61776.25;5073353;28;19919;-84
2023/04/05 11:09:50;;;;;;;;;;;;;;;-141.59;100.00;61776.25;5080070;28;19927;-84
2023/04/05 11:12:17;;;;;;;;;;;;;;;-141.59;100.00;61776.25;5086287;28;19926;-84
2023/04/05 11:14:44;;;;;;;;;;;;;;;-141.59;100.00;61776.25;5086010;28;19934;-85
2023/04/05 11:17:24;;;;;;;;;;;;;;;-141.59;100.00;61776.25;5085547;28;19920;-85
2023/04/05 11:19:53;;;;;;;;;;;;;;;-141.59;100.00;61776.25;5098530;28;19931;-86
2023/04/05 11:22:28;;;;;;;;;;;;;;;-141.59;100.00;61776.25;5077291;28;19920;-85
2023/04/05 11:24:56;;;;;;;;;;;;;;;-141.59;100.00;61776.25;5080636;28;19924;-85
2023/04/05 11:27:27;;;;;;;;;;;;;;;-141.59;100.00;61776.25;5081736;28;20259;-86
2023/04/05 11:29:55;;;;;;;;;;;;;;;-141.59;100.00;61776.25;5083360;28;19924;-84
2023/04/05 11:32:22;;;;;;;;;;;;;;;-141.59;100.00;61776.25;5085367;28;19920;-81
2023/04/05 11:34:59;;;;;;;;;;;;;;;-141.59;100.00;61776.25;5080883;28;19927;-85
2023/04/05 11:37:45;;;;;;;;;;;;;;;-141.59;100.00;61776.25;5081781;28;19924;-85
2023/04/05 11:40:26;;;;;;;;;;;;;;;-141.59;100.00;61776.25;5081306;28;19941;-85
2023/04/05 11:43:04;;;;;;;;;;;;;;;-141.59;100.00;61776.25;5092733;28;19959;-85
2023/04/05 11:45:32;;;;;;;;;;;;;;;-141.59;100.00;61776.25;5081289;28;19924;-86
2023/04/05 11:47:59;;;;;;;;;;;;;;;-141.59;100.00;61776.25;5086569;28;19923;-85
2023/04/05 11:50:27;;;;;;;;;;;;;;;-141.59;100.00;61776.25;5083983;28;19951;-83
2023/04/05 11:53:14;;;;;;;;;;;;;;;-141.59;100.00;61776.25;5089788;28;19943;-84
2023/04/05 11:55:43;;;;;;;;;;;;;;;-141.59;100.00;61776.25;5080516;28;19926;-84
2023/04/05 11:58:14;;;;;;;;;;;;;;;-141.59;100.00;61776.25;5077103;28;19928;-84
2023/04/05 12:00:42;;;;;;;;;;;;;;;-141.59;100.00;61776.25;5084362;28;19999;-85
2023/04/05 12:03:11;;;;;;;;;;;;;;;-141.59;100.00;61776.25;5088421;28;19920;-85
2023/04/05 12:05:48;;;;;;;;;;;;;;;-141.59;100.00;61776.25;5093288;28;19942;-86
2023/04/05 12:08:15;;;;;;;;;;;;;;;-141.59;100.00;61776.25;5090706;28;20011;-85
2023/04/05 12:10:43;;;;;;;;;;;;;;;-141.59;100.00;61776.25;5087540;28;19960;-85
2023/04/05 12:13:10;;;;;;;;;;;;;;;-141.59;100.00;61776.25;5095121;28;19920;-85
2023/04/05 12:15:38;;;;;;;;;;;;;;;-141.59;100.00;61776.25;5081432;28;19920;-86
2023/04/05 12:18:06;;;;;;;;;;;;;;;-141.59;100.00;61776.25;5084841;28;19950;-85
2023/04/05 12:20:33;;;;;;;;;;;;;;;-141.59;100.00;61776.25;5093867;28;19927;-87
2023/04/05 12:23:01;;;;;;;;;;;;;;;-141.59;100.00;61776.25;5082318;28;20028;-87
2023/04/05 12:25:28;;;;;;;;;;;;;;;-141.59;100.00;61776.25;5084474;28;19935;-86
2023/04/05 12:27:57;;;;;;;;;;;;;;;-141.59;100.00;61776.25;5078318;28;19930;-87
2023/04/05 12:30:24;;;;;;;;;;;;;;;-141.59;100.00;61776.25;5082769;28;19927;-85